CheckWX is a tool to help pilots better visualize weather data.  It is not intended as a substitute for an official pre-flight weather briefing.

14:21:22 UTC

KHKS METAR
Hawkins Field Airport
Jackson, Mississippi, USA
Current

1 hour ago

KHKS 161253Z 18008G16KT 9SM OVC010 26/25 A3008 RMK AO2 SLP176 T02610250
Observed
Jul-16 @ 12:53 UTC
Wind
  • 180° at 8 KTS
  • Gusting to 16 KTS
Visibility
9 SM
Flight Rules
MVFR
Cloud Levels
  • Overcast at 1,000' AGL
Temperature
26°C / 79°F
Dewpoint
25°C / 77°F
Humidity
94%
Altimeter
30.08" Hg
Pressure
1018.62 hPa
Previous

2 hours ago

KHKS 161153Z 17004KT 6SM BR BKN010 BKN022 25/24 A3006 RMK AO2 CIG 006V013 SLP172 70033 T02500244 10256 20244 51008
Observed
Jul-16 @ 11:53 UTC
Wind
  • 170° at 4 KTS
Visibility
6 SM
Flight Rules
MVFR
Conditions
Mist
Cloud Levels
  • Broken at 1,000' AGL
  • Broken at 2,200' AGL
Temperature
25°C / 77°F
Dewpoint
24°C / 75°F
Humidity
94%
Altimeter
30.06" Hg
Pressure
1017.92 hPa
24 Hour Rain
0.33"
Previous

3 hours ago

KHKS 161138Z AUTO 16006KT 6SM BR SCT012 BKN021 25/24 A3006 RMK AO2 T02500244
Observed
Jul-16 @ 11:38 UTC
Wind
  • 160° at 6 KTS
Visibility
6 SM
Flight Rules
MVFR
Conditions
Mist
Cloud Levels
  • Scattered at 1,200' AGL
  • Broken at 2,100' AGL
Temperature
25°C / 77°F
Dewpoint
24°C / 75°F
Humidity
94%
Altimeter
30.06" Hg
Pressure
1017.92 hPa